createdAt,value
2018-06-14T00:01:53.855Z,4.93
2018-06-14T00:04:24.856Z,5.00
2018-06-14T00:06:57.058Z,5.03
2018-06-14T00:09:29.209Z,5.50
2018-06-14T00:12:01.014Z,5.40
2018-06-14T00:14:32.112Z,6.07
2018-06-14T00:17:03.364Z,5.47
2018-06-14T00:19:34.528Z,5.90
2018-06-14T00:22:05.635Z,6.50
2018-06-14T00:24:37.893Z,6.30
2018-06-14T00:27:09.981Z,6.37
2018-06-14T00:29:41.483Z,6.57
2018-06-14T00:32:12.664Z,6.63
2018-06-14T00:34:43.629Z,6.33
2018-06-14T00:37:14.752Z,5.80
2018-06-14T00:39:45.734Z,6.30
2018-06-14T00:42:16.794Z,4.83
2018-06-14T00:44:48.409Z,5.13
2018-06-14T00:47:20.179Z,4.40
2018-06-14T00:49:51.467Z,4.37
2018-06-14T00:52:22.821Z,4.40
2018-06-14T00:54:54.033Z,4.10
2018-06-14T00:57:28.781Z,4.77
2018-06-14T01:00:00.488Z,4.83
2018-06-14T01:02:32.672Z,5.63
2018-06-14T01:05:04.121Z,5.90
2018-06-14T01:07:35.241Z,6.47
2018-06-14T01:10:06.417Z,6.47
2018-06-14T01:12:38.323Z,6.73
2018-06-14T01:15:09.423Z,6.07
2018-06-14T01:17:42.614Z,6.50
2018-06-14T01:20:13.880Z,6.70
2018-06-14T01:22:45.050Z,7.20
2018-06-14T01:25:16.066Z,7.80
2018-06-14T01:27:47.046Z,8.10
2018-06-14T01:30:17.979Z,8.03
2018-06-14T01:32:49.149Z,8.73
2018-06-14T01:35:21.001Z,8.60
2018-06-14T01:38:08.201Z,9.87
2018-06-14T01:40:39.360Z,9.47
2018-06-14T01:43:10.495Z,9.80
2018-06-14T01:45:42.506Z,10.27
2018-06-14T01:48:13.860Z,9.53
2018-06-14T01:50:45.145Z,8.93
2018-06-14T01:53:16.418Z,9.43
2018-06-14T01:55:47.402Z,8.73
2018-06-14T01:58:18.555Z,8.63
2018-06-14T02:00:49.718Z,9.27
2018-06-14T02:03:22.027Z,9.33
2018-06-14T02:05:53.503Z,9.33
2018-06-14T02:08:24.557Z,9.93
2018-06-14T02:11:01.837Z,11.00
2018-06-14T02:13:32.778Z,8.97
2018-06-14T02:16:04.851Z,9.00
2018-06-14T02:18:36.966Z,9.60
2018-06-14T02:21:08.383Z,8.57
2018-06-14T02:23:39.984Z,8.77
2018-06-14T02:26:11.202Z,8.83
2018-06-14T02:28:42.286Z,10.47
2018-06-14T02:31:13.447Z,12.43
2018-06-14T02:33:44.939Z,12.77
2018-06-14T02:36:17.047Z,11.77
2018-06-14T02:38:48.095Z,12.43
2018-06-14T02:41:19.232Z,12.70
2018-06-14T02:43:50.317Z,13.20
2018-06-14T02:46:21.504Z,12.87
2018-06-14T02:48:52.951Z,12.33
2018-06-14T02:51:24.447Z,12.47
2018-06-14T02:53:56.078Z,13.60
2018-06-14T02:56:26.935Z,13.40
2018-06-14T02:58:58.245Z,13.67
2018-06-14T03:01:29.967Z,12.97
2018-06-14T03:04:00.983Z,14.50
2018-06-14T03:06:32.063Z,13.23
2018-06-14T03:09:05.446Z,12.87
2018-06-14T03:11:36.409Z,12.53
2018-06-14T03:14:08.469Z,12.97
2018-06-14T03:16:39.695Z,13.40
2018-06-14T03:19:11.333Z,14.03
2018-06-14T03:21:42.574Z,13.47
2018-06-14T03:24:13.426Z,12.93
2018-06-14T03:26:44.447Z,12.83
2018-06-14T03:29:15.662Z,12.40
2018-06-14T03:31:46.753Z,11.13
2018-06-14T03:34:18.313Z,12.00
2018-06-14T03:36:49.922Z,12.33
2018-06-14T03:39:20.862Z,12.37
2018-06-14T03:41:51.803Z,12.73
2018-06-14T03:44:22.850Z,12.13
2018-06-14T03:46:53.757Z,12.63
2018-06-14T03:49:24.958Z,11.70
2018-06-14T03:51:56.727Z,11.67
2018-06-14T03:54:28.868Z,11.50
2018-06-14T03:57:00.403Z,11.50
2018-06-14T03:59:32.075Z,11.20
2018-06-14T04:02:03.473Z,11.40
2018-06-14T04:04:34.411Z,9.90
2018-06-14T04:07:05.356Z,10.83
2018-06-14T04:09:37.339Z,11.10
2018-06-14T04:12:08.503Z,10.60
2018-06-14T04:14:39.833Z,10.37
2018-06-14T04:17:11.872Z,10.77
2018-06-14T04:19:42.388Z,9.53
2018-06-14T04:22:13.624Z,10.57
2018-06-14T04:24:44.920Z,10.70
2018-06-14T04:27:17.441Z,9.90
2018-06-14T04:29:48.577Z,10.40
2018-06-14T04:32:19.922Z,10.37
2018-06-14T04:34:51.503Z,10.37
2018-06-14T04:37:22.640Z,9.80
2018-06-14T04:39:53.638Z,9.87
2018-06-14T04:42:24.725Z,8.67
2018-06-14T04:44:57.563Z,9.43
2018-06-14T04:47:29.932Z,9.27
2018-06-14T04:50:01.376Z,9.40
2018-06-14T04:52:32.580Z,9.63
2018-06-14T04:55:03.689Z,9.17
2018-06-14T04:57:34.695Z,8.87
2018-06-14T05:00:09.235Z,9.47
2018-06-14T05:02:40.503Z,8.70
2018-06-14T05:05:11.919Z,8.93
2018-06-14T05:07:44.100Z,8.00
2018-06-14T05:10:15.277Z,8.17
2018-06-14T05:12:46.172Z,7.90
2018-06-14T05:15:17.419Z,7.53
2018-06-14T05:17:49.396Z,7.60
2018-06-14T05:20:21.038Z,7.20
2018-06-14T05:22:52.015Z,8.17
2018-06-14T05:25:23.205Z,7.13
2018-06-14T05:27:55.799Z,8.30
2018-06-14T05:30:26.972Z,7.17
2018-06-14T05:32:59.098Z,7.13
2018-06-14T05:35:30.665Z,6.73
2018-06-14T05:38:01.687Z,7.60
2018-06-14T05:40:32.565Z,7.00
2018-06-14T05:43:03.678Z,7.30
2018-06-14T05:45:34.741Z,6.50
2018-06-14T05:48:05.941Z,6.27
2018-06-14T05:50:37.645Z,6.77
2018-06-14T05:53:09.393Z,6.73
2018-06-14T05:55:40.412Z,7.40
2018-06-14T05:58:11.721Z,7.07
2018-06-14T06:00:43.630Z,7.37
2018-06-14T06:03:15.712Z,7.20
2018-06-14T06:05:47.013Z,6.57
2018-06-14T06:08:20.082Z,5.90
2018-06-14T06:10:51.369Z,6.00
2018-06-14T06:13:22.542Z,4.80
2018-06-14T06:15:54.536Z,5.03
2018-06-14T06:18:25.941Z,5.07
2018-06-14T06:20:57.120Z,4.30
2018-06-14T06:23:28.740Z,2.90
2018-06-14T06:25:59.973Z,2.97
2018-06-14T06:28:31.224Z,2.20
2018-06-14T06:31:03.901Z,2.50
2018-06-14T06:33:35.306Z,2.53
2018-06-14T06:36:06.468Z,2.23
2018-06-14T06:38:37.816Z,2.10
2018-06-14T06:41:09.160Z,2.17
2018-06-14T06:43:40.628Z,2.60
2018-06-14T06:46:12.293Z,2.10
2018-06-14T06:48:44.004Z,1.90
2018-06-14T06:51:16.556Z,1.90
2018-06-14T06:53:48.256Z,1.90
2018-06-14T06:56:19.701Z,1.80
2018-06-14T06:58:50.961Z,2.10
2018-06-14T07:01:22.100Z,1.90
2018-06-14T07:03:53.307Z,2.30
2018-06-14T07:06:24.861Z,2.20
2018-06-14T07:08:56.989Z,2.30
2018-06-14T07:11:28.472Z,2.50
2018-06-14T07:13:59.686Z,3.00
2018-06-14T07:16:31.579Z,2.50
2018-06-14T07:19:03.347Z,2.20
2018-06-14T07:21:35.190Z,2.07
2018-06-14T07:24:06.799Z,2.30
2018-06-14T07:26:38.785Z,2.27
2018-06-14T07:29:12.213Z,2.23
2018-06-14T07:31:44.066Z,1.87
2018-06-14T07:34:15.933Z,1.80
2018-06-14T07:36:47.165Z,2.37
2018-06-14T07:39:18.388Z,1.73
2018-06-14T07:41:51.046Z,2.00
2018-06-14T07:44:22.735Z,1.77
2018-06-14T07:46:55.359Z,1.53
2018-06-14T07:49:27.674Z,1.70
2018-06-14T07:51:59.364Z,1.90
2018-06-14T07:54:31.500Z,1.87
2018-06-14T07:57:02.843Z,1.30
2018-06-14T07:59:34.164Z,1.70
2018-06-14T08:02:05.945Z,1.60
2018-06-14T08:04:38.604Z,1.63
2018-06-14T08:07:10.839Z,1.80
2018-06-14T08:09:41.885Z,1.80
2018-06-14T08:12:14.049Z,1.80
2018-06-14T08:14:45.346Z,1.70
2018-06-14T08:17:17.448Z,1.80
2018-06-14T08:19:48.548Z,1.50
2018-06-14T08:22:19.479Z,1.80
2018-06-14T08:24:54.282Z,1.60
2018-06-14T08:27:25.405Z,1.50
2018-06-14T08:29:59.425Z,1.47
2018-06-14T08:32:45.559Z,1.50
2018-06-14T08:35:16.714Z,1.60
2018-06-14T08:37:48.261Z,1.30
2018-06-14T08:40:22.666Z,1.53
2018-06-14T08:42:59.739Z,1.60
2018-06-14T08:45:32.136Z,1.50
2018-06-14T08:48:03.679Z,1.30
2018-06-14T08:50:35.436Z,1.60
2018-06-14T08:53:07.961Z,1.50
2018-06-14T08:55:40.569Z,1.40
2018-06-14T08:58:12.873Z,1.60
2018-06-14T09:00:44.700Z,1.43
2018-06-14T09:03:17.038Z,1.73
2018-06-14T09:05:51.326Z,1.70
2018-06-14T09:08:24.882Z,1.50
2018-06-14T09:10:55.924Z,2.03
2018-06-14T09:13:28.453Z,1.50
2018-06-14T09:16:01.004Z,1.50
2018-06-14T09:18:32.864Z,1.23
2018-06-14T09:21:04.770Z,1.40
2018-06-14T09:23:37.806Z,1.33
2018-06-14T09:26:10.323Z,1.40
2018-06-14T09:28:42.696Z,1.60
2018-06-14T09:31:14.260Z,1.50
2018-06-14T09:33:45.350Z,1.57
2018-06-14T09:36:16.676Z,1.50
2018-06-14T09:38:47.851Z,1.57
2018-06-14T09:41:20.437Z,1.70
2018-06-14T09:43:52.742Z,1.60
2018-06-14T09:46:24.648Z,1.57
2018-06-14T09:49:00.946Z,1.40
2018-06-14T09:51:32.873Z,1.33
2018-06-14T09:54:05.089Z,1.50
2018-06-14T09:56:37.796Z,1.73
2018-06-14T09:59:09.813Z,1.40
2018-06-14T10:01:41.642Z,1.70
2018-06-14T10:04:12.803Z,1.60
2018-06-14T10:06:44.912Z,1.30
2018-06-14T10:09:17.381Z,1.30
2018-06-14T10:11:49.550Z,1.30
2018-06-14T10:14:20.816Z,1.33
2018-06-14T10:16:52.238Z,1.60
2018-06-14T10:19:23.332Z,1.27
2018-06-14T10:21:55.953Z,1.20
2018-06-14T10:24:27.730Z,1.40
2018-06-14T10:26:59.904Z,1.60
2018-06-14T10:29:32.423Z,1.40
2018-06-14T10:32:05.079Z,1.40
2018-06-14T10:34:36.903Z,1.60
2018-06-14T10:37:09.247Z,1.30
2018-06-14T10:39:40.927Z,1.30
2018-06-14T10:42:12.775Z,1.30
2018-06-14T10:44:45.468Z,1.50
2018-06-14T10:47:18.471Z,2.10
2018-06-14T10:49:52.194Z,1.40
2018-06-14T10:52:23.509Z,1.53
2018-06-14T10:54:54.855Z,1.50
2018-06-14T10:57:28.068Z,1.50
2018-06-14T11:00:00.215Z,2.13
2018-06-14T11:02:31.720Z,1.43
2018-06-14T11:05:03.814Z,1.40
2018-06-14T11:07:34.961Z,1.33
2018-06-14T11:10:06.655Z,1.20
2018-06-14T11:12:39.196Z,1.40
2018-06-14T11:15:11.181Z,1.30
2018-06-14T11:17:43.073Z,1.47
2018-06-14T11:20:14.803Z,1.27
2018-06-14T11:22:46.573Z,1.50
2018-06-14T11:25:20.441Z,1.40
2018-06-14T11:27:56.798Z,1.20
2018-06-14T11:30:32.339Z,1.17
2018-06-14T11:33:08.919Z,1.33
2018-06-14T11:35:41.184Z,1.50
2018-06-14T11:38:19.227Z,1.33
2018-06-14T11:40:51.978Z,1.47
2018-06-14T11:43:24.218Z,1.30
2018-06-14T11:45:56.144Z,1.27
2018-06-14T11:48:55.499Z,1.23
2018-06-14T11:51:30.252Z,1.30
2018-06-14T11:54:01.814Z,1.37
2018-06-14T11:56:34.289Z,1.30
2018-06-14T11:59:13.941Z,1.50
2018-06-14T12:01:49.071Z,1.10
2018-06-14T12:04:20.268Z,1.33
2018-06-14T12:06:56.543Z,1.27
2018-06-14T12:09:31.103Z,1.43
2018-06-14T12:12:04.949Z,1.57
2018-06-14T12:14:38.815Z,1.50
2018-06-14T12:17:10.187Z,1.63
2018-06-14T12:19:42.444Z,1.40
2018-06-14T12:22:15.980Z,1.50
2018-06-14T12:24:52.681Z,1.50
2018-06-14T12:27:23.835Z,1.50
2018-06-14T12:30:00.482Z,1.30
2018-06-14T12:32:34.815Z,1.27
2018-06-14T12:35:09.709Z,1.63
2018-06-14T12:37:42.539Z,1.50
2018-06-14T12:40:14.361Z,1.20
2018-06-14T12:42:45.665Z,1.23
2018-06-14T12:45:17.397Z,1.00
2018-06-14T12:47:59.466Z,1.20
2018-06-14T12:50:37.980Z,3.00
2018-06-14T12:53:14.893Z,1.43
2018-06-14T12:55:52.307Z,1.50
2018-06-14T12:58:27.632Z,1.23
2018-06-14T13:00:59.691Z,1.40
2018-06-14T13:03:33.590Z,1.30
2018-06-14T13:06:05.202Z,1.30
2018-06-14T13:08:36.967Z,1.30
2018-06-14T13:11:09.132Z,1.33
2018-06-14T13:13:40.220Z,1.10
2018-06-14T13:16:11.401Z,1.43
2018-06-14T13:18:42.699Z,1.30
2018-06-14T13:21:15.774Z,1.40
2018-06-14T13:23:46.908Z,1.67
2018-06-14T13:26:18.245Z,1.60
2018-06-14T13:28:52.407Z,1.27
2018-06-14T13:31:29.466Z,1.10
2018-06-14T13:34:01.966Z,1.33
2018-06-14T13:36:34.210Z,1.70
2018-06-14T13:39:08.419Z,1.50
2018-06-14T13:41:41.516Z,1.33
2018-06-14T13:44:12.431Z,1.50
2018-06-14T13:46:48.403Z,1.27
2018-06-14T13:49:20.857Z,1.50
2018-06-14T13:51:53.100Z,1.30
2018-06-14T13:54:27.048Z,1.40
2018-06-14T13:56:58.785Z,1.40
2018-06-14T13:59:30.262Z,1.37
2018-06-14T14:02:01.969Z,1.60
2018-06-14T14:04:33.752Z,1.20
2018-06-14T14:07:07.454Z,1.47
2018-06-14T14:09:39.971Z,1.63
2018-06-14T14:12:10.573Z,1.70
2018-06-14T14:14:42.041Z,1.70
2018-06-14T14:17:15.088Z,1.60
2018-06-14T14:19:46.414Z,1.60
2018-06-14T14:22:18.309Z,1.50
2018-06-14T14:24:50.919Z,1.60
2018-06-14T14:27:23.368Z,1.50
2018-06-14T14:29:54.891Z,1.27
2018-06-14T14:32:25.645Z,1.30
2018-06-14T14:34:56.306Z,1.40
2018-06-14T14:37:27.465Z,1.40
2018-06-14T14:39:59.842Z,1.50
2018-06-14T14:42:31.271Z,1.33
2018-06-14T14:45:03.930Z,1.23
2018-06-14T14:47:36.153Z,1.43
2018-06-14T14:50:07.430Z,1.20
2018-06-14T14:52:39.548Z,1.10
2018-06-14T14:55:11.503Z,1.43
2018-06-14T14:57:43.566Z,1.40
2018-06-14T15:00:16.715Z,1.50
2018-06-14T15:02:49.120Z,1.30
2018-06-14T15:05:21.017Z,1.57
2018-06-14T15:07:52.528Z,1.30
2018-06-14T15:10:24.432Z,2.20
2018-06-14T15:12:56.880Z,1.40
2018-06-14T15:15:28.490Z,1.30
2018-06-14T15:18:01.409Z,1.40
2018-06-14T15:20:34.156Z,1.43
2018-06-14T15:23:06.503Z,1.23
2018-06-14T15:25:37.270Z,1.50
2018-06-14T15:28:07.529Z,1.50
2018-06-14T15:30:39.174Z,1.70
2018-06-14T15:33:12.335Z,1.30
2018-06-14T15:35:43.409Z,1.50
2018-06-14T15:38:14.678Z,1.67
2018-06-14T15:40:46.344Z,1.93
2018-06-14T15:43:17.483Z,1.53
2018-06-14T15:45:49.644Z,1.63
2018-06-14T15:48:22.349Z,1.60
2018-06-14T15:50:54.487Z,1.97
2018-06-14T15:53:25.940Z,1.80
2018-06-14T15:56:19.955Z,1.50
2018-06-14T15:58:51.507Z,1.67
2018-06-14T16:01:23.657Z,1.70
2018-06-14T16:03:55.409Z,1.80
2018-06-14T16:06:29.969Z,1.87
2018-06-14T16:09:01.986Z,1.60
2018-06-14T16:11:34.488Z,1.67
2018-06-14T16:14:05.909Z,1.60
2018-06-14T16:16:39.006Z,1.60
2018-06-14T16:19:12.232Z,2.03
2018-06-14T16:21:44.577Z,2.00
2018-06-14T16:24:16.315Z,1.87
2018-06-14T16:26:48.420Z,1.63
2018-06-14T16:29:21.115Z,1.50
2018-06-14T16:31:53.201Z,1.77
2018-06-14T16:34:25.713Z,2.10
2018-06-14T16:37:02.823Z,1.80
2018-06-14T16:39:36.543Z,1.80
2018-06-14T16:42:10.564Z,1.60
2018-06-14T16:44:43.492Z,2.03
2018-06-14T16:47:15.452Z,2.30
2018-06-14T16:49:48.231Z,1.93
2018-06-14T16:52:19.879Z,2.67
2018-06-14T16:54:52.160Z,2.20
2018-06-14T16:57:23.922Z,1.97
2018-06-14T16:59:55.193Z,2.17
2018-06-14T17:02:29.011Z,2.20
2018-06-14T17:05:01.290Z,1.97
2018-06-14T17:07:32.988Z,2.50
2018-06-14T17:10:04.388Z,2.40
2018-06-14T17:12:35.805Z,2.07
2018-06-14T17:15:07.987Z,1.83
2018-06-14T17:17:39.360Z,2.40
2018-06-14T17:20:12.351Z,2.40
2018-06-14T17:22:44.256Z,1.97
2018-06-14T17:25:17.008Z,2.17
2018-06-14T17:27:49.899Z,2.37
2018-06-14T17:30:21.646Z,2.20
2018-06-14T17:32:52.740Z,2.30
2018-06-14T17:35:25.555Z,2.20
2018-06-14T17:37:57.228Z,2.40
2018-06-14T17:40:29.528Z,2.23
2018-06-14T17:43:01.650Z,2.00
2018-06-14T17:45:34.848Z,2.80
2018-06-14T17:48:07.614Z,2.23
2018-06-14T17:50:40.357Z,2.07
2018-06-14T17:53:11.970Z,2.37
2018-06-14T17:55:43.919Z,2.27
2018-06-14T17:58:16.934Z,2.27
2018-06-14T18:00:49.814Z,2.20
2018-06-14T18:03:23.554Z,2.80
2018-06-14T18:05:56.005Z,2.47
2018-06-14T18:08:28.907Z,2.57
2018-06-14T18:11:02.125Z,3.00
2018-06-14T18:13:36.523Z,2.67
2018-06-14T18:16:08.928Z,2.50
2018-06-14T18:18:41.611Z,2.87
2018-06-14T18:21:14.563Z,2.60
2018-06-14T18:23:47.399Z,2.50
2018-06-14T18:26:20.674Z,2.90
2018-06-14T18:28:54.286Z,3.00
2018-06-14T18:31:27.803Z,3.03
2018-06-14T18:34:00.474Z,3.20
2018-06-14T18:36:35.137Z,3.10
2018-06-14T18:39:11.818Z,3.20
2018-06-14T18:41:44.826Z,3.60
2018-06-14T18:44:18.375Z,2.97
2018-06-14T18:46:51.117Z,3.30
2018-06-14T18:49:24.896Z,3.20
2018-06-14T18:51:58.048Z,2.60
2018-06-14T18:54:31.080Z,2.90
2018-06-14T18:57:03.259Z,3.00
2018-06-14T18:59:35.493Z,2.97
2018-06-14T19:02:09.414Z,2.90
2018-06-14T19:04:43.574Z,3.27
2018-06-14T19:07:16.282Z,3.00
2018-06-14T19:09:50.186Z,3.10
2018-06-14T19:12:22.808Z,3.17
2018-06-14T19:14:55.969Z,3.50
2018-06-14T19:17:30.299Z,3.27
2018-06-14T19:20:03.891Z,3.40
2018-06-14T19:22:36.732Z,3.90
2018-06-14T19:25:10.652Z,4.60
2018-06-14T19:27:44.086Z,4.80
2018-06-14T19:30:18.459Z,3.80
2018-06-14T19:32:51.276Z,4.17
2018-06-14T19:35:24.099Z,5.60
2018-06-14T19:37:58.480Z,3.50
2018-06-14T19:40:31.720Z,4.00
2018-06-14T19:43:05.416Z,3.40
2018-06-14T19:45:38.761Z,4.10
2018-06-14T19:48:12.296Z,4.00
2018-06-14T19:50:45.494Z,4.03
2018-06-14T19:53:18.814Z,3.70
2018-06-14T19:55:53.322Z,3.60
2018-06-14T19:58:26.282Z,3.30
2018-06-14T20:00:58.278Z,3.30
2018-06-14T20:03:31.413Z,2.67
2018-06-14T20:06:04.524Z,2.70
2018-06-14T20:08:39.118Z,3.00
2018-06-14T20:11:12.391Z,2.83
2018-06-14T20:13:45.416Z,2.77
2018-06-14T20:16:18.692Z,2.63
2018-06-14T20:18:52.108Z,2.70
2018-06-14T20:21:26.794Z,3.03
2018-06-14T20:23:59.042Z,3.00
2018-06-14T20:26:34.230Z,3.30
2018-06-14T20:29:07.480Z,3.50
2018-06-14T20:31:41.135Z,3.00
2018-06-14T20:34:14.694Z,3.20
2018-06-14T20:36:47.995Z,4.73
2018-06-14T20:39:21.130Z,3.93
2018-06-14T20:41:55.236Z,3.57
2018-06-14T20:44:28.783Z,3.47
2018-06-14T20:47:02.992Z,3.30
2018-06-14T20:49:35.551Z,2.97
2018-06-14T20:52:09.332Z,3.23
2018-06-14T20:54:42.732Z,3.40
2018-06-14T20:57:15.853Z,3.43
2018-06-14T20:59:49.536Z,3.90
2018-06-14T21:02:22.277Z,3.13
2018-06-14T21:04:55.968Z,3.10
2018-06-14T21:07:29.376Z,3.07
2018-06-14T21:10:03.045Z,3.03
2018-06-14T21:12:35.894Z,3.00
2018-06-14T21:15:09.252Z,3.53
2018-06-14T21:17:41.279Z,3.23
2018-06-14T21:20:14.003Z,3.23
2018-06-14T21:22:48.096Z,3.27
2018-06-14T21:25:19.974Z,3.00
2018-06-14T21:27:51.599Z,3.30
2018-06-14T21:30:23.277Z,3.30
2018-06-14T21:32:54.918Z,2.73
2018-06-14T21:35:27.118Z,3.73
2018-06-14T21:38:00.278Z,3.43
2018-06-14T21:40:31.652Z,2.70
2018-06-14T21:43:03.419Z,3.70
2018-06-14T21:45:35.470Z,3.77
2018-06-14T21:48:07.619Z,3.27
2018-06-14T21:50:46.114Z,3.20
2018-06-14T21:53:19.500Z,2.90
2018-06-14T21:55:51.737Z,3.10
2018-06-14T21:58:23.136Z,3.20
2018-06-14T22:00:56.181Z,3.03
2018-06-14T22:03:33.040Z,3.07
2018-06-14T22:06:04.020Z,2.67
2018-06-14T22:08:35.105Z,3.10
2018-06-14T22:11:06.205Z,2.90
2018-06-14T22:13:37.759Z,3.20
2018-06-14T22:16:09.276Z,3.30
2018-06-14T22:18:40.400Z,3.20
2018-06-14T22:21:11.407Z,2.93
2018-06-14T22:23:44.027Z,3.10
2018-06-14T22:26:15.067Z,3.60
2018-06-14T22:28:45.958Z,3.20
2018-06-14T22:31:17.461Z,3.13
2018-06-14T22:34:04.922Z,3.30
2018-06-14T22:36:36.078Z,3.30
2018-06-14T22:39:08.934Z,3.13
2018-06-14T22:41:40.863Z,3.03
2018-06-14T22:44:11.733Z,3.20
2018-06-14T22:46:43.062Z,3.30
2018-06-14T22:49:14.446Z,3.40
2018-06-14T22:53:53.958Z,2.90
2018-06-14T22:56:25.280Z,3.60
2018-06-14T22:58:56.760Z,3.20
2018-06-14T23:01:35.321Z,8.97
2018-06-14T23:04:07.742Z,4.77
2018-06-14T23:06:40.362Z,4.67
2018-06-14T23:10:27.746Z,5.00
2018-06-14T23:12:59.015Z,2.80
2018-06-14T23:15:30.652Z,2.83
2018-06-14T23:18:02.084Z,3.00
2018-06-14T23:20:34.251Z,3.40
2018-06-14T23:23:06.818Z,2.97
2018-06-14T23:25:39.207Z,3.10
2018-06-14T23:28:10.667Z,3.77
2018-06-14T23:30:41.807Z,4.07
2018-06-14T23:33:13.046Z,3.70
2018-06-14T23:35:44.519Z,3.07
2018-06-14T23:38:15.538Z,3.43
2018-06-14T23:40:46.897Z,3.73
2018-06-14T23:43:19.199Z,3.70
2018-06-14T23:45:50.504Z,3.53
2018-06-14T23:48:21.488Z,3.57
2018-06-14T23:50:52.726Z,3.87
2018-06-14T23:53:23.836Z,3.80
2018-06-14T23:55:54.896Z,3.50
2018-06-14T23:58:25.914Z,3.17
